Burdock, South Dakota
Current Conditions -  °F | °C
As of 2:53 PM on Saturday 25 Oct 2014 (Local Time) from KCUT Reporting Station
Clear Clear  
Wind Chill: 68°   Ceiling: Unl
Heat Index: 68°   Visibility: 10mi
Dew Point: 33°   Wind: 6mph
Humidity: 27%   Direction: NA
Pressure: 30.09"   Gusts: NA
Location:  43.1994°N, 103.759°W
Report Text: KCUT 252053Z AUTO VRB05KT 10SM CLR 20/01 A3009 RMK AO2 SLP150 T02000006 56022
Loading
Personal Weather Stations






























Interactive Weather Map
Tropical Storm Tracking
New forecast layout! Learn more

10-Day Weather Forecast

Advertisements
Track Severe Weather on mobile